createdAt,value
2023-05-07T00:00:22.334Z,5.70
2023-05-07T00:02:49.005Z,5.97
2023-05-07T00:05:16.177Z,5.90
2023-05-07T00:07:43.110Z,4.87
2023-05-07T00:10:13.433Z,5.50
2023-05-07T00:12:41.749Z,5.47
2023-05-07T00:15:09.031Z,6.13
2023-05-07T00:17:35.953Z,5.73
2023-05-07T00:20:04.226Z,6.20
2023-05-07T00:22:31.290Z,5.03
2023-05-07T00:24:57.947Z,6.23
2023-05-07T00:27:25.220Z,5.77
2023-05-07T00:29:52.018Z,5.60
2023-05-07T00:32:18.493Z,6.00
2023-05-07T00:34:44.999Z,6.07
2023-05-07T00:37:12.889Z,6.40
2023-05-07T00:39:39.392Z,5.10
2023-05-07T00:42:05.846Z,5.37
2023-05-07T00:44:32.320Z,6.10
2023-05-07T00:46:58.937Z,5.47
2023-05-07T00:49:36.933Z,5.37
2023-05-07T00:52:03.628Z,5.23
2023-05-07T00:54:30.477Z,5.30
2023-05-07T00:56:57.172Z,5.47
2023-05-07T00:59:23.778Z,5.27
2023-05-07T01:01:50.555Z,4.87
2023-05-07T01:04:17.349Z,5.50
2023-05-07T01:06:45.475Z,4.90
2023-05-07T01:09:13.267Z,5.87
2023-05-07T01:11:40.405Z,5.37
2023-05-07T01:14:07.472Z,5.77
2023-05-07T01:16:34.062Z,4.30
2023-05-07T01:19:01.475Z,5.30
2023-05-07T01:21:28.062Z,4.87
2023-05-07T01:23:55.626Z,4.70
2023-05-07T01:26:23.111Z,4.77
2023-05-07T01:28:49.599Z,5.50
2023-05-07T01:31:17.856Z,4.90
2023-05-07T01:33:46.014Z,5.00
2023-05-07T01:36:13.181Z,4.83
2023-05-07T01:38:40.396Z,5.20
2023-05-07T01:41:07.612Z,4.73
2023-05-07T01:43:34.340Z,4.67
2023-05-07T01:46:01.366Z,5.10
2023-05-07T01:48:28.022Z,5.17
2023-05-07T01:50:54.676Z,5.43
2023-05-07T01:53:21.331Z,5.30
2023-05-07T01:55:47.993Z,5.13
2023-05-07T01:58:14.453Z,4.90
2023-05-07T02:00:41.713Z,5.20
2023-05-07T02:03:08.258Z,5.03
2023-05-07T02:05:34.788Z,4.87
2023-05-07T02:08:01.389Z,5.17
2023-05-07T02:10:27.872Z,4.50
2023-05-07T02:12:54.376Z,5.20
2023-05-07T02:15:21.032Z,5.47
2023-05-07T02:18:02.289Z,4.93
2023-05-07T02:20:28.948Z,5.27
2023-05-07T02:22:55.686Z,5.20
2023-05-07T02:25:22.133Z,4.83
2023-05-07T02:27:48.622Z,5.00
2023-05-07T02:30:15.358Z,4.43
2023-05-07T02:32:41.893Z,4.37
2023-05-07T02:35:08.865Z,5.27
2023-05-07T02:37:35.926Z,5.00
2023-05-07T02:40:02.393Z,5.37
2023-05-07T02:42:28.815Z,4.93
2023-05-07T02:44:55.245Z,4.60
2023-05-07T02:47:21.925Z,5.17
2023-05-07T02:49:48.452Z,4.70
2023-05-07T02:52:14.902Z,5.30
2023-05-07T02:54:41.476Z,5.20
2023-05-07T02:57:07.908Z,4.90
2023-05-07T02:59:34.389Z,5.00
2023-05-07T03:02:00.972Z,5.07
2023-05-07T03:04:27.501Z,4.77
2023-05-07T03:06:53.982Z,5.33
2023-05-07T03:09:20.476Z,4.47
2023-05-07T03:11:46.956Z,4.27
2023-05-07T03:14:13.421Z,4.70
2023-05-07T03:16:40.570Z,4.30
2023-05-07T03:19:07.247Z,4.20
2023-05-07T03:21:34.838Z,4.83
2023-05-07T03:24:01.430Z,4.67
2023-05-07T03:26:27.907Z,4.73
2023-05-07T03:28:54.370Z,4.30
2023-05-07T03:31:20.967Z,4.53
2023-05-07T03:33:54.773Z,4.50
2023-05-07T03:36:21.652Z,4.20
2023-05-07T03:38:49.129Z,4.77
2023-05-07T03:41:15.845Z,4.33
2023-05-07T03:43:42.401Z,4.13
2023-05-07T03:46:08.912Z,4.37
2023-05-07T03:48:35.471Z,4.53
2023-05-07T03:51:02.137Z,4.70
2023-05-07T03:53:28.694Z,4.40
2023-05-07T03:55:55.253Z,4.47
2023-05-07T03:58:21.806Z,4.43
2023-05-07T04:00:50.128Z,4.13
2023-05-07T04:03:16.821Z,4.77
2023-05-07T04:05:43.508Z,4.30
2023-05-07T04:08:10.098Z,4.73
2023-05-07T04:10:36.625Z,4.07
2023-05-07T04:13:03.252Z,3.90
2023-05-07T04:15:29.837Z,4.00
2023-05-07T04:17:56.433Z,4.17
2023-05-07T04:20:22.993Z,4.50
2023-05-07T04:22:49.562Z,4.50
2023-05-07T04:25:17.388Z,4.53
2023-05-07T04:27:44.017Z,4.60
2023-05-07T04:30:11.103Z,4.43
2023-05-07T04:32:38.431Z,4.50
2023-05-07T04:35:05.431Z,4.53
2023-05-07T04:37:33.467Z,4.23
2023-05-07T04:40:00.065Z,4.13
2023-05-07T04:42:26.610Z,4.00
2023-05-07T04:44:54.490Z,4.50
2023-05-07T04:47:21.075Z,4.17
2023-05-07T04:49:47.771Z,3.93
2023-05-07T04:52:14.262Z,4.17
2023-05-07T04:54:40.796Z,4.17
2023-05-07T04:57:07.803Z,4.53
2023-05-07T04:59:34.477Z,4.17
2023-05-07T05:02:01.626Z,4.03
2023-05-07T05:04:28.344Z,4.10
2023-05-07T05:06:54.813Z,4.07
2023-05-07T05:09:21.333Z,3.70
2023-05-07T05:11:47.840Z,3.90
2023-05-07T05:14:14.453Z,3.90
2023-05-07T05:16:41.011Z,4.00
2023-05-07T05:19:07.673Z,3.63
2023-05-07T05:21:34.121Z,4.20
2023-05-07T05:24:00.820Z,4.03
2023-05-07T05:26:27.343Z,4.00
2023-05-07T05:28:53.817Z,3.70
2023-05-07T05:31:20.382Z,3.50
2023-05-07T05:33:46.892Z,3.40
2023-05-07T05:36:14.153Z,3.40
2023-05-07T05:38:41.338Z,3.57
2023-05-07T05:41:07.883Z,3.43
2023-05-07T05:43:34.394Z,2.97
2023-05-07T05:46:01.718Z,3.47
2023-05-07T05:48:30.110Z,3.13
2023-05-07T05:50:56.623Z,3.20
2023-05-07T05:53:23.089Z,3.20
2023-05-07T05:55:49.768Z,3.10
2023-05-07T05:58:16.336Z,3.37
2023-05-07T06:00:43.026Z,3.07
2023-05-07T06:03:09.547Z,2.80
2023-05-07T06:05:36.025Z,2.67
2023-05-07T06:08:02.635Z,3.00
2023-05-07T06:10:29.276Z,2.43
2023-05-07T06:12:55.826Z,2.70
2023-05-07T06:15:22.369Z,2.90
2023-05-07T06:17:50.077Z,3.03
2023-05-07T06:20:16.729Z,2.63
2023-05-07T06:22:43.274Z,2.80
2023-05-07T06:25:10.164Z,2.87
2023-05-07T06:27:36.644Z,2.80
2023-05-07T06:30:03.371Z,2.37
2023-05-07T06:32:29.943Z,2.57
2023-05-07T06:34:56.654Z,2.60
2023-05-07T06:37:23.271Z,2.50
2023-05-07T06:39:49.768Z,2.57
2023-05-07T06:42:16.367Z,2.47
2023-05-07T06:44:42.891Z,2.70
2023-05-07T06:47:09.428Z,2.47
2023-05-07T06:49:36.000Z,2.80
2023-05-07T06:52:02.443Z,2.67
2023-05-07T06:54:29.832Z,2.33
2023-05-07T06:56:56.379Z,2.90
2023-05-07T06:59:22.997Z,2.47
2023-05-07T07:01:49.504Z,2.40
2023-05-07T07:04:16.245Z,2.63
2023-05-07T07:06:42.955Z,2.50
2023-05-07T07:09:09.468Z,2.63
2023-05-07T07:11:36.150Z,2.10
2023-05-07T07:14:02.670Z,2.17
2023-05-07T07:16:29.279Z,2.40
2023-05-07T07:18:56.118Z,2.07
2023-05-07T07:21:22.641Z,2.10
2023-05-07T07:23:49.167Z,2.20
2023-05-07T07:26:15.616Z,2.30
2023-05-07T07:28:48.083Z,2.20
2023-05-07T07:31:15.017Z,2.03
2023-05-07T07:33:41.721Z,2.00
2023-05-07T07:36:08.495Z,1.90
2023-05-07T07:38:35.536Z,1.80
2023-05-07T07:41:02.892Z,2.60
2023-05-07T07:43:29.808Z,1.70
2023-05-07T07:45:56.572Z,1.83
2023-05-07T07:48:23.118Z,1.90
2023-05-07T07:50:51.326Z,2.00
2023-05-07T07:53:18.190Z,2.20
2023-05-07T07:55:45.370Z,2.10
2023-05-07T07:58:11.844Z,2.10
2023-05-07T08:00:38.472Z,1.87
2023-05-07T08:03:06.348Z,2.30
2023-05-07T08:05:32.946Z,1.83
2023-05-07T08:07:59.691Z,1.90
2023-05-07T08:10:26.376Z,1.80
2023-05-07T08:12:53.028Z,1.80
2023-05-07T08:15:19.592Z,1.80
2023-05-07T08:17:46.253Z,1.80
2023-05-07T08:20:12.934Z,2.07
2023-05-07T08:22:39.946Z,1.80
2023-05-07T08:25:06.549Z,2.20
2023-05-07T08:27:33.030Z,1.73
2023-05-07T08:29:59.905Z,1.93
2023-05-07T08:32:26.518Z,1.90
2023-05-07T08:34:53.332Z,2.00
2023-05-07T08:37:20.134Z,1.87
2023-05-07T08:39:46.734Z,1.70
2023-05-07T08:42:14.032Z,1.60
2023-05-07T08:44:41.052Z,1.50
2023-05-07T08:47:08.398Z,1.50
2023-05-07T08:49:35.730Z,1.77
2023-05-07T08:52:02.659Z,1.50
2023-05-07T08:54:30.240Z,1.80
2023-05-07T08:56:56.796Z,1.70
2023-05-07T08:59:23.632Z,1.87
2023-05-07T09:01:50.340Z,1.90
2023-05-07T09:04:17.138Z,1.80
2023-05-07T09:06:43.808Z,1.40
2023-05-07T09:09:10.388Z,1.80
2023-05-07T09:11:36.846Z,1.57
2023-05-07T09:14:03.845Z,1.50
2023-05-07T09:16:31.521Z,1.60
2023-05-07T09:19:01.320Z,2.13
2023-05-07T09:21:28.277Z,1.80
2023-05-07T09:23:56.525Z,1.47
2023-05-07T09:26:24.001Z,1.43
2023-05-07T09:28:50.641Z,1.80
2023-05-07T09:31:19.426Z,1.80
2023-05-07T09:33:47.630Z,2.00
2023-05-07T09:36:14.929Z,1.50
2023-05-07T09:38:41.510Z,2.00
2023-05-07T09:41:10.594Z,1.67
2023-05-07T09:43:38.205Z,1.40
2023-05-07T09:46:07.291Z,1.33
2023-05-07T09:48:38.567Z,1.67
2023-05-07T09:51:16.921Z,1.70
2023-05-07T09:53:44.706Z,1.53
2023-05-07T09:56:12.220Z,1.47
2023-05-07T09:58:40.518Z,1.57
2023-05-07T10:01:07.823Z,1.67
2023-05-07T10:03:36.029Z,1.53
2023-05-07T10:06:03.892Z,1.67
2023-05-07T10:08:31.834Z,1.67
2023-05-07T10:10:58.331Z,1.33
2023-05-07T10:13:25.398Z,1.30
2023-05-07T10:15:52.071Z,1.33
2023-05-07T10:18:19.517Z,1.43
2023-05-07T10:20:47.226Z,1.43
2023-05-07T10:23:14.631Z,1.50
2023-05-07T10:25:42.492Z,1.90
2023-05-07T10:28:11.328Z,1.70
2023-05-07T10:31:03.228Z,1.60
2023-05-07T10:33:30.848Z,1.60
2023-05-07T10:36:00.343Z,1.50
2023-05-07T10:38:28.351Z,1.33
2023-05-07T10:40:55.097Z,1.30
2023-05-07T10:43:21.710Z,1.37
2023-05-07T10:46:21.525Z,1.40
2023-05-07T10:49:03.847Z,1.37
2023-05-07T10:51:33.651Z,1.60
2023-05-07T10:54:12.515Z,1.50
2023-05-07T10:56:44.184Z,1.60
2023-05-07T10:59:24.656Z,1.60
2023-05-07T11:02:00.754Z,1.70
2023-05-07T11:04:28.549Z,1.20
2023-05-07T11:07:22.041Z,1.70
2023-05-07T11:09:54.524Z,1.37
2023-05-07T11:12:39.943Z,1.80
2023-05-07T11:15:19.059Z,1.50
2023-05-07T11:17:59.601Z,1.70
2023-05-07T11:20:49.029Z,1.30
2023-05-07T11:23:34.017Z,1.20
2023-05-07T11:26:04.837Z,1.23
2023-05-07T11:28:32.468Z,1.30
2023-05-07T11:30:59.130Z,1.30
2023-05-07T11:33:29.089Z,1.20
2023-05-07T11:35:55.834Z,1.83
2023-05-07T11:38:22.650Z,1.40
2023-05-07T11:41:01.648Z,1.50
2023-05-07T11:43:28.551Z,1.33
2023-05-07T11:45:55.187Z,1.53
2023-05-07T11:48:23.390Z,1.63
2023-05-07T11:51:03.003Z,1.43
2023-05-07T11:53:37.079Z,1.40
2023-05-07T11:56:17.969Z,1.73
2023-05-07T11:58:45.998Z,1.33
2023-05-07T12:01:13.625Z,1.50
2023-05-07T12:03:44.034Z,1.10
2023-05-07T12:06:12.741Z,1.40
2023-05-07T12:08:40.895Z,1.40
2023-05-07T12:11:26.831Z,1.40
2023-05-07T12:13:59.070Z,1.60
2023-05-07T12:16:26.714Z,1.30
2023-05-07T12:18:56.132Z,1.27
2023-05-07T12:21:23.286Z,1.30
2023-05-07T12:23:50.150Z,1.57
2023-05-07T12:26:16.850Z,1.87
2023-05-07T12:28:43.499Z,1.87
2023-05-07T12:31:10.089Z,1.90
2023-05-07T12:33:37.215Z,1.50
2023-05-07T12:36:06.841Z,1.47
2023-05-07T12:38:38.250Z,1.23
2023-05-07T12:41:05.177Z,1.25
2023-05-07T12:43:31.754Z,1.00
2023-05-07T12:46:00.698Z,1.30
2023-05-07T12:48:30.272Z,1.25
2023-05-07T12:50:58.118Z,1.33
2023-05-07T12:53:27.029Z,1.33
2023-05-07T12:55:57.955Z,1.20
2023-05-07T12:58:26.850Z,1.00
2023-05-07T13:00:54.095Z,1.23
2023-05-07T13:03:27.561Z,1.00
2023-05-07T13:05:58.785Z,1.17
2023-05-07T13:08:33.334Z,1.17
2023-05-07T13:11:05.182Z,1.20
2023-05-07T13:13:33.026Z,1.07
2023-05-07T13:16:01.495Z,1.20
2023-05-07T13:18:30.103Z,1.30
2023-05-07T13:20:56.865Z,1.20
2023-05-07T13:23:23.424Z,1.20
2023-05-07T13:25:50.393Z,0.97
2023-05-07T13:28:17.343Z,1.97
2023-05-07T13:30:43.940Z,1.27
2023-05-07T13:33:10.548Z,1.60
2023-05-07T13:35:37.040Z,1.07
2023-05-07T13:38:03.566Z,1.00
2023-05-07T13:40:30.240Z,1.00
2023-05-07T13:42:59.418Z,1.20
2023-05-07T13:45:27.084Z,0.93
2023-05-07T13:47:53.716Z,1.20
2023-05-07T13:50:20.374Z,1.20
2023-05-07T13:52:51.393Z,1.30
2023-05-07T13:55:21.949Z,0.97
2023-05-07T13:57:48.591Z,0.87
2023-05-07T14:00:16.365Z,0.93
2023-05-07T14:02:43.210Z,1.03
2023-05-07T14:05:10.773Z,0.90
2023-05-07T14:07:37.665Z,0.90
2023-05-07T14:10:04.644Z,1.03
2023-05-07T14:12:31.430Z,0.90
2023-05-07T14:14:57.948Z,1.20
2023-05-07T14:17:26.393Z,1.10
2023-05-07T14:19:55.167Z,1.03
2023-05-07T14:22:23.423Z,0.80
2023-05-07T14:25:05.284Z,0.90
2023-05-07T14:27:32.722Z,1.00
2023-05-07T14:29:59.335Z,1.10
2023-05-07T14:32:25.993Z,1.20
2023-05-07T14:34:52.607Z,1.10
2023-05-07T14:37:20.897Z,1.27
2023-05-07T14:39:49.898Z,1.07
2023-05-07T14:42:16.677Z,1.00
2023-05-07T14:44:43.227Z,1.57
2023-05-07T14:47:09.859Z,0.97
2023-05-07T14:49:36.584Z,1.20
2023-05-07T14:52:03.352Z,1.10
2023-05-07T14:54:29.841Z,1.33
2023-05-07T14:56:56.801Z,1.00
2023-05-07T14:59:25.782Z,1.23
2023-05-07T15:01:52.388Z,1.20
2023-05-07T15:04:19.082Z,1.40
2023-05-07T15:06:45.852Z,1.67
2023-05-07T15:09:12.312Z,1.20
2023-05-07T15:11:38.852Z,1.50
2023-05-07T15:14:05.494Z,1.63
2023-05-07T15:16:32.686Z,1.37
2023-05-07T15:18:59.297Z,1.80
2023-05-07T15:21:27.180Z,1.83
2023-05-07T15:23:53.645Z,1.43
2023-05-07T15:26:21.385Z,1.40
2023-05-07T15:28:47.912Z,1.40
2023-05-07T15:31:14.564Z,1.50
2023-05-07T15:33:41.854Z,1.30
2023-05-07T15:36:08.713Z,1.40
2023-05-07T15:38:35.535Z,1.80
2023-05-07T15:41:02.094Z,1.37
2023-05-07T15:43:28.800Z,1.40
2023-05-07T15:45:55.770Z,1.53
2023-05-07T15:48:22.423Z,1.53
2023-05-07T15:50:49.209Z,1.43
2023-05-07T15:53:15.806Z,1.40
2023-05-07T15:55:44.260Z,1.60
2023-05-07T15:58:10.935Z,1.60
2023-05-07T16:00:40.717Z,1.40
2023-05-07T16:03:08.246Z,1.47
2023-05-07T16:05:34.910Z,1.20
2023-05-07T16:08:01.438Z,1.60
2023-05-07T16:10:28.126Z,1.43
2023-05-07T16:12:54.975Z,1.27
2023-05-07T16:15:21.592Z,1.50
2023-05-07T16:17:51.813Z,1.50
2023-05-07T16:20:19.979Z,1.50
2023-05-07T16:22:46.845Z,1.83
2023-05-07T16:25:14.778Z,1.37
2023-05-07T16:27:41.459Z,1.23
2023-05-07T16:30:09.554Z,2.33
2023-05-07T16:32:36.365Z,1.60
2023-05-07T16:35:03.187Z,1.60
2023-05-07T16:37:29.765Z,1.60
2023-05-07T16:40:00.655Z,1.50
2023-05-07T16:42:28.269Z,1.50
2023-05-07T16:44:54.803Z,1.77
2023-05-07T16:47:21.673Z,1.60
2023-05-07T16:49:48.279Z,1.60
2023-05-07T16:52:14.858Z,1.57
2023-05-07T16:54:41.393Z,3.87
2023-05-07T16:57:07.909Z,3.00
2023-05-07T16:59:34.396Z,1.70
2023-05-07T17:02:00.987Z,2.37
2023-05-07T17:04:28.358Z,2.10
2023-05-07T17:06:54.908Z,1.90
2023-05-07T17:09:21.373Z,1.77
2023-05-07T17:11:47.965Z,1.80
2023-05-07T17:14:14.496Z,3.53
2023-05-07T17:16:41.120Z,4.00
2023-05-07T17:19:07.656Z,2.37
2023-05-07T17:21:34.332Z,1.70
2023-05-07T17:24:00.825Z,1.90
2023-05-07T17:26:27.925Z,2.03
2023-05-07T17:28:54.424Z,2.93
2023-05-07T17:31:20.982Z,2.10
2023-05-07T17:33:47.802Z,2.73
2023-05-07T17:36:14.798Z,2.67
2023-05-07T17:38:41.392Z,2.23
2023-05-07T17:41:08.051Z,2.27
2023-05-07T17:43:34.577Z,2.10
2023-05-07T17:46:01.201Z,2.30
2023-05-07T17:48:27.741Z,2.40
2023-05-07T17:50:54.275Z,2.40
2023-05-07T17:53:23.961Z,3.00
2023-05-07T17:55:50.584Z,2.50
2023-05-07T17:58:17.122Z,1.93
2023-05-07T18:00:43.612Z,3.67
2023-05-07T18:03:10.404Z,3.40
2023-05-07T18:05:37.726Z,2.43
2023-05-07T18:08:04.358Z,2.40
2023-05-07T18:10:30.891Z,1.90
2023-05-07T18:12:57.581Z,2.00
2023-05-07T18:15:24.147Z,2.20
2023-05-07T18:17:50.756Z,2.10
2023-05-07T18:20:17.342Z,2.57
2023-05-07T18:22:43.786Z,2.30
2023-05-07T18:25:10.530Z,3.00
2023-05-07T18:27:37.001Z,2.37
2023-05-07T18:30:04.115Z,3.00
2023-05-07T18:32:30.872Z,2.57
2023-05-07T18:34:57.313Z,2.63
2023-05-07T18:37:25.396Z,2.67
2023-05-07T18:39:53.215Z,2.63
2023-05-07T18:42:20.171Z,3.13
2023-05-07T18:44:46.621Z,2.60
2023-05-07T18:47:13.993Z,2.70
2023-05-07T18:49:40.530Z,2.80
2023-05-07T18:52:07.051Z,2.40
2023-05-07T18:54:33.485Z,2.20
2023-05-07T18:57:00.032Z,3.80
2023-05-07T18:59:26.552Z,2.60
2023-05-07T19:01:53.360Z,2.90
2023-05-07T19:04:20.366Z,3.07
2023-05-07T19:06:47.105Z,2.50
2023-05-07T19:09:14.443Z,2.67
2023-05-07T19:11:40.986Z,2.60
2023-05-07T19:14:07.716Z,3.13
2023-05-07T19:16:34.417Z,3.07
2023-05-07T19:19:00.986Z,2.70
2023-05-07T19:21:28.623Z,2.80
2023-05-07T19:23:57.353Z,2.63
2023-05-07T19:26:24.464Z,2.77
2023-05-07T19:29:06.789Z,2.90
2023-05-07T19:31:38.390Z,3.53
2023-05-07T19:34:04.925Z,3.23
2023-05-07T19:36:34.198Z,2.93
2023-05-07T19:39:00.739Z,3.33
2023-05-07T19:41:27.230Z,3.13
2023-05-07T19:43:53.677Z,3.23
2023-05-07T19:46:20.434Z,3.40
2023-05-07T19:48:46.885Z,2.97
2023-05-07T19:51:13.390Z,3.33
2023-05-07T19:53:40.019Z,3.67
2023-05-07T19:56:07.992Z,3.40
2023-05-07T19:58:35.275Z,3.77
2023-05-07T20:01:02.393Z,3.97
2023-05-07T20:03:30.052Z,3.87
2023-05-07T20:05:56.822Z,4.00
2023-05-07T20:08:23.312Z,4.23
2023-05-07T20:10:51.061Z,4.53
2023-05-07T20:13:18.221Z,4.30
2023-05-07T20:15:44.891Z,4.13
2023-05-07T20:18:11.624Z,4.10
2023-05-07T20:20:38.091Z,3.90
2023-05-07T20:23:04.594Z,4.67
2023-05-07T20:25:31.012Z,4.33
2023-05-07T20:27:57.499Z,4.37
2023-05-07T20:30:24.567Z,5.67
2023-05-07T20:32:51.248Z,4.97
2023-05-07T20:35:17.904Z,4.47
2023-05-07T20:37:44.440Z,5.30
2023-05-07T20:40:11.599Z,5.30
2023-05-07T20:42:38.637Z,4.53
2023-05-07T20:45:05.409Z,4.20
2023-05-07T20:47:33.713Z,3.60
2023-05-07T20:50:00.310Z,4.37
2023-05-07T20:52:26.960Z,4.80
2023-05-07T20:54:53.504Z,4.10
2023-05-07T20:57:20.038Z,4.60
2023-05-07T20:59:46.494Z,4.90
2023-05-07T21:02:13.106Z,4.50
2023-05-07T21:04:39.615Z,4.63
2023-05-07T21:07:06.349Z,6.10
2023-05-07T21:09:32.847Z,5.27
2023-05-07T21:11:59.500Z,4.80
2023-05-07T21:14:26.152Z,4.27
2023-05-07T21:16:52.685Z,4.43
2023-05-07T21:19:19.162Z,4.53
2023-05-07T21:21:45.745Z,4.53
2023-05-07T21:24:12.306Z,3.90
2023-05-07T21:26:38.806Z,4.40
2023-05-07T21:29:05.453Z,5.60
2023-05-07T21:31:32.117Z,4.43
2023-05-07T21:33:58.658Z,4.20
2023-05-07T21:36:25.248Z,6.13
2023-05-07T21:38:51.898Z,5.73
2023-05-07T21:41:20.359Z,4.47
2023-05-07T21:43:46.966Z,5.50
2023-05-07T21:46:13.531Z,4.30
2023-05-07T21:48:40.080Z,4.83
2023-05-07T21:51:07.599Z,4.60
2023-05-07T21:53:34.919Z,4.73
2023-05-07T21:56:02.863Z,5.00
2023-05-07T21:58:30.965Z,4.80
2023-05-07T22:00:57.900Z,5.30
2023-05-07T22:03:25.096Z,4.13
2023-05-07T22:05:51.661Z,4.17
2023-05-07T22:08:18.100Z,4.40
2023-05-07T22:10:44.869Z,4.70
2023-05-07T22:13:11.488Z,4.40
2023-05-07T22:15:53.225Z,4.00
2023-05-07T22:18:23.072Z,4.50
2023-05-07T22:20:51.744Z,4.90
2023-05-07T22:23:18.251Z,4.93
2023-05-07T22:25:44.695Z,10.53
2023-05-07T22:28:11.281Z,4.33
2023-05-07T22:30:37.893Z,5.00
2023-05-07T22:33:04.475Z,4.20
2023-05-07T22:35:31.004Z,4.87
2023-05-07T22:37:58.369Z,8.93
2023-05-07T22:40:24.832Z,7.90
2023-05-07T22:42:51.411Z,11.13
2023-05-07T22:45:17.909Z,5.17
2023-05-07T22:47:44.437Z,4.20
2023-05-07T22:50:12.278Z,4.17
2023-05-07T22:52:39.027Z,3.57
2023-05-07T22:55:05.994Z,3.70
2023-05-07T22:57:32.495Z,4.10
2023-05-07T22:59:58.976Z,4.27
2023-05-07T23:02:28.869Z,4.07
2023-05-07T23:04:58.727Z,4.00
2023-05-07T23:07:25.301Z,3.90
2023-05-07T23:09:51.918Z,4.70
2023-05-07T23:12:18.381Z,4.40
2023-05-07T23:14:44.986Z,4.73
2023-05-07T23:17:11.600Z,3.87
2023-05-07T23:19:38.241Z,4.03
2023-05-07T23:22:04.767Z,4.40
2023-05-07T23:24:31.282Z,4.43
2023-05-07T23:26:57.772Z,4.07
2023-05-07T23:29:24.313Z,3.80
2023-05-07T23:31:50.935Z,4.10
2023-05-07T23:34:23.619Z,3.93
2023-05-07T23:36:51.212Z,3.80
2023-05-07T23:39:18.632Z,3.90
2023-05-07T23:41:45.538Z,3.53
2023-05-07T23:44:12.153Z,4.07
2023-05-07T23:46:38.740Z,4.00
2023-05-07T23:49:05.385Z,3.87
2023-05-07T23:51:32.089Z,3.77
2023-05-07T23:53:58.551Z,3.07
2023-05-07T23:56:25.001Z,3.60
2023-05-07T23:58:51.478Z,3.80
